createdAt,value
2022-08-26T00:01:54.396Z,59.90
2022-08-26T00:04:23.930Z,60.03
2022-08-26T00:06:51.234Z,60.01
2022-08-26T00:09:18.287Z,60.31
2022-08-26T00:11:46.039Z,60.33
2022-08-26T00:14:14.525Z,60.22
2022-08-26T00:16:48.171Z,60.30
2022-08-26T00:19:18.331Z,60.31
2022-08-26T00:21:46.574Z,60.52
2022-08-26T00:24:16.306Z,60.49
2022-08-26T00:26:43.867Z,60.83
2022-08-26T00:29:12.994Z,60.64
2022-08-26T00:31:40.087Z,60.55
2022-08-26T00:34:09.544Z,60.93
2022-08-26T00:36:38.150Z,60.87
2022-08-26T00:39:07.466Z,60.87
2022-08-26T00:41:35.384Z,60.69
2022-08-26T00:44:02.218Z,61.04
2022-08-26T00:46:33.743Z,60.88
2022-08-26T00:49:12.400Z,60.75
2022-08-26T00:51:49.578Z,60.71
2022-08-26T00:54:19.030Z,60.72
2022-08-26T00:56:55.708Z,60.52
2022-08-26T00:59:23.947Z,60.88
2022-08-26T01:01:51.860Z,60.94
2022-08-26T01:04:22.780Z,61.01
2022-08-26T01:06:52.928Z,60.68
2022-08-26T01:09:22.038Z,60.86
2022-08-26T01:11:51.221Z,60.78
2022-08-26T01:16:48.795Z,60.99
2022-08-26T01:19:42.012Z,61.29
2022-08-26T01:22:28.106Z,60.97
2022-08-26T01:24:56.284Z,61.08
2022-08-26T01:27:24.410Z,61.02
2022-08-26T01:29:51.796Z,60.91
2022-08-26T01:32:23.286Z,61.16
2022-08-26T01:34:50.431Z,61.20
2022-08-26T01:37:32.914Z,61.16
2022-08-26T01:42:27.503Z,60.30
2022-08-26T01:45:00.464Z,60.65
2022-08-26T01:47:31.836Z,60.09
2022-08-26T01:50:03.498Z,60.25
2022-08-26T01:52:33.979Z,59.70
2022-08-26T01:55:01.806Z,59.88
2022-08-26T01:57:29.229Z,59.52
2022-08-26T02:00:00.286Z,59.35
2022-08-26T02:02:28.022Z,59.17
2022-08-26T02:04:59.870Z,59.28
2022-08-26T02:07:27.976Z,58.92
2022-08-26T02:09:55.559Z,58.72
2022-08-26T02:12:23.285Z,58.73
2022-08-26T02:14:54.275Z,58.95
2022-08-26T02:17:26.620Z,58.70
2022-08-26T02:19:53.758Z,58.61
2022-08-26T02:22:24.535Z,58.24
2022-08-26T02:24:53.053Z,58.33
2022-08-26T02:27:24.624Z,58.35
2022-08-26T02:29:56.591Z,58.49
2022-08-26T02:32:24.550Z,58.23
2022-08-26T02:34:51.586Z,57.96
2022-08-26T02:37:18.457Z,58.12
2022-08-26T02:39:50.053Z,58.15
2022-08-26T02:42:16.826Z,58.09
2022-08-26T02:44:43.868Z,57.90
2022-08-26T02:47:15.321Z,57.96
2022-08-26T02:49:47.387Z,57.90
2022-08-26T02:52:14.783Z,57.67
2022-08-26T02:54:41.650Z,57.78
2022-08-26T02:57:08.654Z,57.99
2022-08-26T02:59:36.141Z,57.84
2022-08-26T03:02:03.198Z,57.90
2022-08-26T03:04:31.174Z,57.94
2022-08-26T03:07:00.276Z,58.14
2022-08-26T03:09:28.058Z,58.04
2022-08-26T03:11:55.636Z,57.75
2022-08-26T03:14:24.592Z,57.72
2022-08-26T03:16:54.518Z,57.72
2022-08-26T03:19:23.675Z,57.95
2022-08-26T03:21:52.973Z,57.76
2022-08-26T03:24:25.533Z,57.95
2022-08-26T03:26:52.843Z,58.25
2022-08-26T03:29:41.409Z,58.17
2022-08-26T03:32:09.058Z,58.32
2022-08-26T03:34:36.268Z,57.99
2022-08-26T03:37:03.444Z,58.53
2022-08-26T03:39:31.658Z,58.19
2022-08-26T03:41:59.319Z,58.54
2022-08-26T03:44:26.778Z,58.54
2022-08-26T03:46:54.610Z,58.20
2022-08-26T03:49:22.182Z,58.24
2022-08-26T03:51:49.044Z,58.57
2022-08-26T03:54:16.788Z,58.66
2022-08-26T03:56:44.309Z,58.58
2022-08-26T03:59:14.225Z,58.86
2022-08-26T04:01:41.434Z,58.63
2022-08-26T04:04:08.147Z,59.04
2022-08-26T04:06:38.400Z,58.66
2022-08-26T04:09:08.054Z,58.80
2022-08-26T04:11:38.667Z,59.20
2022-08-26T04:14:14.025Z,59.02
2022-08-26T04:16:45.432Z,58.81
2022-08-26T04:19:14.476Z,59.25
2022-08-26T04:21:42.237Z,58.98
2022-08-26T04:24:12.034Z,58.80
2022-08-26T04:26:42.682Z,58.99
2022-08-26T04:29:13.760Z,59.20
2022-08-26T04:31:41.456Z,59.47
2022-08-26T04:34:08.948Z,59.26
2022-08-26T04:36:38.148Z,59.45
2022-08-26T04:39:05.607Z,59.50
2022-08-26T04:41:32.672Z,59.68
2022-08-26T04:43:59.454Z,59.77
2022-08-26T04:46:26.174Z,59.43
2022-08-26T04:48:54.125Z,59.34
2022-08-26T04:51:28.131Z,59.39
2022-08-26T04:53:57.306Z,59.30
2022-08-26T04:56:29.922Z,59.57
2022-08-26T04:58:56.888Z,59.14
2022-08-26T05:01:24.890Z,59.28
2022-08-26T05:03:52.652Z,59.20
2022-08-26T05:06:20.684Z,58.98
2022-08-26T05:08:48.803Z,58.69
2022-08-26T05:11:15.827Z,58.67
2022-08-26T05:13:42.527Z,58.32
2022-08-26T05:16:13.969Z,58.15
2022-08-26T05:18:43.596Z,58.14
2022-08-26T05:21:20.096Z,57.60
2022-08-26T05:23:48.123Z,57.68
2022-08-26T05:26:22.902Z,57.30
2022-08-26T05:28:50.210Z,57.13
2022-08-26T05:31:20.872Z,56.90
2022-08-26T05:33:48.169Z,56.45
2022-08-26T05:36:19.133Z,56.06
2022-08-26T05:38:46.481Z,55.77
2022-08-26T05:41:24.907Z,55.90
2022-08-26T05:43:53.043Z,55.56
2022-08-26T05:46:20.221Z,54.50
2022-08-26T05:48:47.026Z,54.16
2022-08-26T05:51:14.763Z,53.63
2022-08-26T05:53:43.929Z,53.27
2022-08-26T05:56:24.967Z,53.02
2022-08-26T05:58:52.292Z,53.42
2022-08-26T06:01:27.803Z,53.96
2022-08-26T06:04:01.795Z,53.08
2022-08-26T06:06:43.042Z,52.65
2022-08-26T06:09:12.155Z,53.04
2022-08-26T06:11:39.774Z,52.81
2022-08-26T06:14:08.388Z,52.38
2022-08-26T06:16:43.866Z,51.84
2022-08-26T06:19:14.847Z,51.77
2022-08-26T06:21:45.131Z,51.10
2022-08-26T06:24:32.695Z,50.80
2022-08-26T06:27:05.030Z,50.72
2022-08-26T06:29:34.096Z,50.65
2022-08-26T06:32:02.738Z,50.53
2022-08-26T06:34:30.699Z,50.43
2022-08-26T06:37:02.499Z,49.33
2022-08-26T06:39:30.845Z,48.94
2022-08-26T06:42:02.741Z,48.81
2022-08-26T06:44:30.666Z,48.31
2022-08-26T06:46:59.131Z,48.11
2022-08-26T06:49:27.391Z,47.37
2022-08-26T06:51:58.741Z,47.19
2022-08-26T06:54:26.868Z,47.46
2022-08-26T06:56:53.988Z,47.11
2022-08-26T06:59:21.908Z,46.49
2022-08-26T07:01:49.788Z,46.30
2022-08-26T07:04:22.012Z,46.16
2022-08-26T07:06:52.768Z,46.12
2022-08-26T07:09:21.909Z,45.54
2022-08-26T07:11:49.379Z,45.68
2022-08-26T07:14:21.108Z,45.46
2022-08-26T07:16:49.439Z,45.59
2022-08-26T07:19:31.185Z,45.83
2022-08-26T07:22:04.143Z,45.44
2022-08-26T07:24:33.351Z,45.66
2022-08-26T07:27:05.512Z,44.52
2022-08-26T07:29:33.826Z,44.25
2022-08-26T07:32:00.789Z,43.65
2022-08-26T07:34:27.620Z,43.99
2022-08-26T07:36:55.489Z,43.73
2022-08-26T07:39:22.908Z,43.55
2022-08-26T07:41:50.144Z,43.44
2022-08-26T07:44:20.916Z,43.51
2022-08-26T07:46:52.410Z,42.92
2022-08-26T07:49:21.982Z,42.91
2022-08-26T07:51:49.892Z,41.64
2022-08-26T07:54:17.332Z,41.36
2022-08-26T07:56:46.177Z,41.34
2022-08-26T07:59:13.952Z,42.06
2022-08-26T08:01:45.164Z,41.79
2022-08-26T08:04:22.999Z,41.63
2022-08-26T08:06:53.830Z,42.02
2022-08-26T08:09:21.054Z,41.83
2022-08-26T08:11:49.819Z,41.18
2022-08-26T08:14:18.365Z,40.68
2022-08-26T08:16:48.903Z,39.63
2022-08-26T08:19:20.325Z,39.49
2022-08-26T08:21:48.640Z,39.23
2022-08-26T08:24:16.004Z,38.16
2022-08-26T08:26:42.733Z,37.81
2022-08-26T08:29:09.510Z,37.14
2022-08-26T08:31:56.810Z,36.59
2022-08-26T08:34:28.068Z,35.34
2022-08-26T08:36:55.099Z,34.47
2022-08-26T08:39:22.535Z,33.46
2022-08-26T08:42:32.679Z,31.66
2022-08-26T08:45:07.482Z,30.35
2022-08-26T08:47:42.999Z,29.35
2022-08-26T08:50:24.097Z,28.00
2022-08-26T08:53:00.071Z,26.57
2022-08-26T08:55:36.347Z,24.99
2022-08-26T08:58:12.977Z,23.54
2022-08-26T09:00:58.369Z,22.84
2022-08-26T09:04:07.686Z,21.54
2022-08-26T09:06:35.452Z,19.65
2022-08-26T09:09:03.483Z,19.21
2022-08-26T09:11:31.026Z,18.32
2022-08-26T09:14:00.481Z,17.44
2022-08-26T09:16:56.728Z,17.83
2022-08-26T09:19:35.209Z,16.96
2022-08-26T09:22:07.015Z,16.33
2022-08-26T09:24:42.136Z,16.05
2022-08-26T09:27:43.113Z,15.55
2022-08-26T09:30:26.545Z,15.04
2022-08-26T09:33:10.850Z,15.30
2022-08-26T09:35:46.750Z,14.81
2022-08-26T09:38:26.940Z,14.45
2022-08-26T09:41:05.054Z,14.12
2022-08-26T09:43:32.738Z,13.34
2022-08-26T09:46:22.734Z,13.43
2022-08-26T09:48:53.046Z,13.45
2022-08-26T09:51:26.569Z,13.80
2022-08-26T09:54:05.629Z,13.45
2022-08-26T09:56:39.272Z,12.71
2022-08-26T09:59:11.311Z,13.00
2022-08-26T10:01:43.883Z,12.99
2022-08-26T10:04:14.778Z,12.42
2022-08-26T10:06:44.447Z,12.36
2022-08-26T10:09:16.861Z,11.98
2022-08-26T10:11:50.092Z,12.55
2022-08-26T10:14:34.770Z,11.34
2022-08-26T10:17:17.350Z,11.47
2022-08-26T10:19:56.519Z,11.97
2022-08-26T10:22:36.632Z,12.02
2022-08-26T10:25:08.815Z,12.09
2022-08-26T10:27:51.242Z,11.41
2022-08-26T10:30:22.523Z,10.51
2022-08-26T10:32:54.809Z,11.39
2022-08-26T10:35:22.068Z,11.07
2022-08-26T10:37:56.039Z,11.14
2022-08-26T10:40:27.978Z,10.92
2022-08-26T10:43:11.277Z,11.38
2022-08-26T10:45:46.619Z,11.28
2022-08-26T10:48:21.398Z,10.32
2022-08-26T10:50:49.552Z,10.33
2022-08-26T10:53:38.042Z,10.64
2022-08-26T10:56:24.138Z,10.88
2022-08-26T10:59:18.176Z,9.72
2022-08-26T11:01:50.832Z,10.50
2022-08-26T11:04:41.499Z,10.91
2022-08-26T11:07:34.220Z,10.74
2022-08-26T11:10:06.442Z,10.88
2022-08-26T11:12:36.337Z,10.57
2022-08-26T11:15:19.546Z,10.15
2022-08-26T11:17:51.435Z,10.70
2022-08-26T11:20:31.327Z,10.82
2022-08-26T11:23:20.563Z,10.46
2022-08-26T11:25:57.422Z,10.25
2022-08-26T11:28:44.200Z,10.87
2022-08-26T11:31:27.077Z,9.90
2022-08-26T11:33:59.539Z,9.30
2022-08-26T11:36:45.472Z,9.95
2022-08-26T11:39:20.118Z,10.20
2022-08-26T11:41:52.631Z,10.86
2022-08-26T11:44:22.748Z,10.61
2022-08-26T11:46:55.006Z,10.71
2022-08-26T11:49:21.847Z,10.00
2022-08-26T11:51:48.942Z,9.75
2022-08-26T11:54:30.760Z,10.55
2022-08-26T11:57:09.298Z,10.07
2022-08-26T11:59:40.643Z,10.46
2022-08-26T12:02:17.725Z,10.79
2022-08-26T12:04:49.247Z,10.66
2022-08-26T12:07:18.492Z,10.70
2022-08-26T12:09:58.410Z,10.23
2022-08-26T12:12:35.253Z,9.19
2022-08-26T12:15:11.679Z,10.49
2022-08-26T12:17:39.970Z,10.79
2022-08-26T12:20:19.086Z,9.63
2022-08-26T12:22:48.141Z,9.89
2022-08-26T12:25:23.676Z,10.20
2022-08-26T12:27:53.648Z,10.19
2022-08-26T12:30:26.138Z,10.29
2022-08-26T12:33:17.992Z,9.55
2022-08-26T12:35:54.777Z,9.95
2022-08-26T12:38:25.365Z,10.06
2022-08-26T12:40:52.460Z,10.18
2022-08-26T12:43:42.770Z,9.79
2022-08-26T12:46:13.956Z,9.76
2022-08-26T12:48:44.339Z,9.59
2022-08-26T12:51:32.691Z,9.10
2022-08-26T12:53:59.869Z,9.72
2022-08-26T12:56:41.247Z,9.84
2022-08-26T12:59:24.643Z,9.39
2022-08-26T13:01:53.306Z,9.32
2022-08-26T13:04:40.028Z,9.66
2022-08-26T13:07:22.108Z,9.91
2022-08-26T13:09:51.012Z,9.50
2022-08-26T13:12:37.297Z,9.78
2022-08-26T13:15:05.894Z,10.43
2022-08-26T13:17:35.946Z,10.40
2022-08-26T13:20:04.361Z,11.26
2022-08-26T13:22:32.159Z,11.91
2022-08-26T13:24:58.902Z,11.31
2022-08-26T13:27:27.663Z,11.32
2022-08-26T13:29:55.610Z,11.13
2022-08-26T13:32:26.122Z,10.39
2022-08-26T13:34:55.769Z,10.27
2022-08-26T13:37:34.117Z,10.47
2022-08-26T13:40:04.934Z,11.36
2022-08-26T13:42:31.717Z,11.84
2022-08-26T13:44:59.060Z,11.93
2022-08-26T13:47:27.710Z,11.16
2022-08-26T13:49:56.426Z,11.10
2022-08-26T13:52:30.826Z,12.05
2022-08-26T13:54:59.238Z,12.47
2022-08-26T13:57:28.495Z,12.32
2022-08-26T13:59:57.343Z,12.58
2022-08-26T14:02:24.054Z,12.76
2022-08-26T14:04:51.216Z,13.51
2022-08-26T14:07:18.119Z,13.14
2022-08-26T14:09:45.097Z,13.40
2022-08-26T14:12:11.856Z,13.70
2022-08-26T14:14:38.573Z,14.31
2022-08-26T14:17:06.415Z,14.21
2022-08-26T14:19:34.057Z,14.43
2022-08-26T14:22:01.581Z,14.75
2022-08-26T14:24:29.017Z,14.77
2022-08-26T14:26:55.911Z,16.05
2022-08-26T14:29:22.591Z,16.73
2022-08-26T14:31:49.643Z,16.09
2022-08-26T14:34:16.365Z,16.84
2022-08-26T14:36:43.625Z,16.68
2022-08-26T14:39:12.968Z,17.31
2022-08-26T14:41:54.015Z,17.76
2022-08-26T14:44:25.834Z,17.46
2022-08-26T14:46:53.549Z,17.60
2022-08-26T14:49:23.171Z,18.66
2022-08-26T14:51:50.377Z,20.00
2022-08-26T14:54:18.916Z,20.65
2022-08-26T14:57:00.962Z,20.43
2022-08-26T14:59:30.919Z,21.11
2022-08-26T15:01:58.437Z,21.16
2022-08-26T15:04:25.427Z,21.98
2022-08-26T15:06:53.914Z,21.82
2022-08-26T15:09:21.155Z,22.64
2022-08-26T15:11:48.080Z,23.21
2022-08-26T15:14:19.650Z,23.03
2022-08-26T15:16:51.999Z,23.17
2022-08-26T15:19:19.691Z,23.69
2022-08-26T15:21:48.567Z,23.24
2022-08-26T15:24:18.499Z,23.89
2022-08-26T15:26:45.506Z,24.56
2022-08-26T15:29:12.778Z,24.06
2022-08-26T15:31:39.668Z,24.08
2022-08-26T15:34:16.037Z,25.50
2022-08-26T15:36:45.253Z,24.75
2022-08-26T15:39:13.121Z,24.04
2022-08-26T15:41:40.435Z,23.54
2022-08-26T15:44:08.377Z,23.66
2022-08-26T15:46:35.811Z,24.07
2022-08-26T15:49:04.658Z,23.65
2022-08-26T15:51:34.210Z,23.67
2022-08-26T15:54:05.181Z,23.66
2022-08-26T15:56:38.653Z,23.81
2022-08-26T15:59:08.515Z,23.97
2022-08-26T16:01:35.662Z,23.77
2022-08-26T16:04:03.113Z,24.12
2022-08-26T16:06:33.360Z,23.82
2022-08-26T16:09:01.459Z,23.75
2022-08-26T16:11:29.030Z,23.87
2022-08-26T16:13:56.091Z,24.32
2022-08-26T16:16:23.565Z,23.79
2022-08-26T16:18:51.613Z,24.47
2022-08-26T16:21:23.074Z,24.58
2022-08-26T16:23:50.412Z,24.11
2022-08-26T16:26:21.829Z,24.68
2022-08-26T16:28:48.655Z,24.44
2022-08-26T16:31:16.129Z,24.56
2022-08-26T16:33:43.510Z,25.26
2022-08-26T16:36:11.379Z,24.64
2022-08-26T16:38:39.414Z,25.30
2022-08-26T16:41:07.154Z,25.60
2022-08-26T16:43:34.717Z,25.71
2022-08-26T16:46:01.497Z,25.52
2022-08-26T16:48:28.353Z,25.51
2022-08-26T16:50:55.760Z,25.61
2022-08-26T16:53:23.486Z,25.93
2022-08-26T16:55:51.653Z,26.18
2022-08-26T16:58:21.985Z,26.15
2022-08-26T17:00:49.534Z,26.86
2022-08-26T17:03:17.092Z,26.88
2022-08-26T17:05:44.615Z,27.63
2022-08-26T17:08:15.416Z,27.65
2022-08-26T17:10:54.713Z,28.40
2022-08-26T17:13:31.435Z,27.86
2022-08-26T17:16:06.287Z,28.34
2022-08-26T17:18:33.710Z,28.68
2022-08-26T17:21:06.672Z,29.04
2022-08-26T17:23:33.536Z,29.93
2022-08-26T17:26:00.293Z,30.41
2022-08-26T17:28:27.033Z,30.46
2022-08-26T17:30:56.299Z,31.14
2022-08-26T17:33:24.577Z,31.24
2022-08-26T17:35:51.940Z,31.59
2022-08-26T17:38:18.967Z,31.67
2022-08-26T17:40:45.642Z,32.13
2022-08-26T17:43:12.871Z,32.30
2022-08-26T17:45:41.345Z,32.87
2022-08-26T17:48:08.617Z,33.14
2022-08-26T17:50:35.743Z,33.44
2022-08-26T17:53:02.410Z,33.53
2022-08-26T17:55:30.211Z,33.63
2022-08-26T17:57:57.132Z,32.94
2022-08-26T18:00:26.696Z,33.13
2022-08-26T18:02:55.417Z,33.11
2022-08-26T18:05:22.814Z,33.21
2022-08-26T18:07:51.538Z,33.12
2022-08-26T18:10:20.021Z,32.81
2022-08-26T18:12:47.067Z,32.79
2022-08-26T18:15:15.746Z,32.77
2022-08-26T18:17:43.168Z,32.90
2022-08-26T18:20:13.441Z,33.08
2022-08-26T18:22:42.077Z,33.05
2022-08-26T18:25:09.481Z,32.81
2022-08-26T18:27:37.502Z,33.22
2022-08-26T18:30:16.789Z,33.24
2022-08-26T18:32:44.756Z,33.20
2022-08-26T18:35:12.200Z,32.92
2022-08-26T18:37:39.305Z,33.34
2022-08-26T18:40:09.321Z,33.57
2022-08-26T18:42:36.647Z,33.41
2022-08-26T18:45:05.682Z,33.16
2022-08-26T18:47:33.596Z,33.33
2022-08-26T18:50:04.979Z,33.53
2022-08-26T18:52:32.280Z,33.85
2022-08-26T18:54:59.514Z,34.02
2022-08-26T18:57:26.203Z,33.96
2022-08-26T18:59:53.208Z,34.54
2022-08-26T19:02:20.039Z,34.56
2022-08-26T19:04:46.872Z,34.89
2022-08-26T19:07:14.666Z,35.09
2022-08-26T19:09:51.706Z,34.82
2022-08-26T19:12:22.791Z,35.18
2022-08-26T19:14:53.638Z,35.55
2022-08-26T19:17:22.646Z,35.38
2022-08-26T19:19:49.894Z,35.74
2022-08-26T19:22:16.619Z,36.04
2022-08-26T19:24:43.916Z,36.10
2022-08-26T19:27:14.692Z,35.98
2022-08-26T19:29:42.823Z,36.05
2022-08-26T19:32:09.644Z,36.25
2022-08-26T19:34:36.566Z,36.35
2022-08-26T19:37:03.675Z,36.77
2022-08-26T19:39:30.593Z,36.45
2022-08-26T19:42:00.604Z,36.72
2022-08-26T19:44:48.347Z,37.02
2022-08-26T19:47:17.348Z,37.54
2022-08-26T19:49:46.534Z,37.32
2022-08-26T19:52:14.400Z,37.67
2022-08-26T19:54:41.395Z,38.44
2022-08-26T19:57:08.848Z,38.40
2022-08-26T19:59:36.459Z,39.01
2022-08-26T20:02:10.089Z,39.29
2022-08-26T20:04:37.330Z,39.70
2022-08-26T20:07:05.729Z,39.66
2022-08-26T20:09:34.575Z,40.69
2022-08-26T20:12:03.117Z,40.46
2022-08-26T20:14:30.096Z,40.87
2022-08-26T20:16:57.016Z,40.45
2022-08-26T20:19:44.256Z,41.14
2022-08-26T20:22:12.026Z,40.63
2022-08-26T20:24:39.560Z,41.27
2022-08-26T20:27:07.986Z,41.48
2022-08-26T20:29:36.445Z,41.36
2022-08-26T20:32:06.220Z,41.60
2022-08-26T20:34:33.202Z,41.28
2022-08-26T20:37:03.314Z,41.21
2022-08-26T20:39:30.170Z,41.93
2022-08-26T20:41:57.996Z,42.08
2022-08-26T20:44:25.518Z,42.37
2022-08-26T20:46:52.566Z,42.15
2022-08-26T20:49:19.379Z,42.70
2022-08-26T20:51:50.851Z,42.76
2022-08-26T20:54:18.328Z,42.62
2022-08-26T20:56:45.181Z,42.91
2022-08-26T20:59:12.073Z,43.42
2022-08-26T21:01:42.189Z,43.04
2022-08-26T21:04:14.270Z,43.33
2022-08-26T21:06:42.364Z,43.38
2022-08-26T21:09:16.761Z,43.84
2022-08-26T21:11:44.873Z,43.50
2022-08-26T21:14:15.989Z,43.81
2022-08-26T21:16:44.801Z,43.42
2022-08-26T21:19:13.933Z,43.54
2022-08-26T21:21:41.915Z,43.51
2022-08-26T21:24:08.767Z,43.51
2022-08-26T21:26:35.858Z,43.44
2022-08-26T21:29:03.155Z,43.27
2022-08-26T21:31:32.072Z,43.71
2022-08-26T21:33:59.594Z,43.92
2022-08-26T21:36:27.114Z,44.23
2022-08-26T21:38:57.592Z,44.44
2022-08-26T21:41:25.147Z,44.83
2022-08-26T21:43:58.118Z,44.93
2022-08-26T21:46:27.129Z,45.02
2022-08-26T21:49:03.818Z,45.10
2022-08-26T21:51:32.897Z,45.06
2022-08-26T21:54:01.420Z,45.51
2022-08-26T21:56:30.165Z,45.29
2022-08-26T21:58:57.860Z,45.55
2022-08-26T22:01:26.463Z,45.58
2022-08-26T22:03:54.621Z,45.43
2022-08-26T22:06:23.581Z,45.75
2022-08-26T22:08:52.485Z,46.10
2022-08-26T22:11:20.817Z,45.99
2022-08-26T22:13:48.815Z,46.30
2022-08-26T22:16:17.279Z,46.36
2022-08-26T22:18:45.081Z,46.61
2022-08-26T22:21:18.219Z,46.92
2022-08-26T22:23:46.746Z,47.38
2022-08-26T22:26:16.359Z,46.91
2022-08-26T22:28:55.647Z,47.30
2022-08-26T22:31:37.912Z,47.00
2022-08-26T22:34:11.631Z,47.07
2022-08-26T22:36:44.194Z,46.40
2022-08-26T22:39:17.066Z,46.09
2022-08-26T22:41:47.183Z,45.63
2022-08-26T22:44:13.923Z,45.38
2022-08-26T22:46:41.612Z,45.06
2022-08-26T22:49:10.917Z,44.75
2022-08-26T22:51:37.969Z,44.74
2022-08-26T22:54:05.939Z,44.74
2022-08-26T22:56:34.265Z,44.62
2022-08-26T22:59:01.127Z,43.82
2022-08-26T23:01:28.110Z,43.72
2022-08-26T23:03:55.220Z,43.56
2022-08-26T23:06:21.990Z,43.13
2022-08-26T23:08:49.550Z,43.20
2022-08-26T23:11:16.461Z,42.94
2022-08-26T23:13:43.974Z,43.18
2022-08-26T23:16:12.643Z,43.21
2022-08-26T23:18:40.876Z,43.61
2022-08-26T23:21:10.674Z,43.89
2022-08-26T23:23:38.522Z,44.24
2022-08-26T23:26:08.127Z,44.86
2022-08-26T23:28:38.555Z,45.08
2022-08-26T23:31:06.259Z,45.59
2022-08-26T23:33:51.718Z,45.76
2022-08-26T23:36:22.566Z,45.78
2022-08-26T23:38:52.783Z,45.94
2022-08-26T23:41:23.569Z,46.35
2022-08-26T23:43:51.714Z,46.17
2022-08-26T23:46:19.844Z,46.30
2022-08-26T23:48:47.270Z,46.55
2022-08-26T23:51:32.683Z,46.63
2022-08-26T23:53:59.515Z,46.77
2022-08-26T23:56:26.891Z,46.81
2022-08-26T23:58:54.048Z,47.02
